createdAt,value
2023-01-19T00:00:15.492Z,0.80
2023-01-19T00:02:48.845Z,0.74
2023-01-19T00:05:20.069Z,0.75
2023-01-19T00:07:50.294Z,0.77
2023-01-19T00:10:20.697Z,0.78
2023-01-19T00:12:51.274Z,0.76
2023-01-19T00:15:21.671Z,0.71
2023-01-19T00:17:56.441Z,0.75
2023-01-19T00:20:27.014Z,0.69
2023-01-19T00:22:57.096Z,0.72
2023-01-19T00:25:27.415Z,0.76
2023-01-19T00:28:00.609Z,0.71
2023-01-19T00:30:32.026Z,0.70
2023-01-19T00:33:04.432Z,0.65
2023-01-19T00:35:34.525Z,0.69
2023-01-19T00:38:05.702Z,0.67
2023-01-19T00:40:35.618Z,0.66
2023-01-19T00:43:04.301Z,0.67
2023-01-19T00:45:36.072Z,0.68
2023-01-19T00:48:09.181Z,0.63
2023-01-19T00:50:39.046Z,0.67
2023-01-19T00:53:08.965Z,0.70
2023-01-19T00:55:38.816Z,0.61
2023-01-19T00:58:09.806Z,0.61
2023-01-19T01:00:39.742Z,0.58
2023-01-19T01:03:14.028Z,0.61
2023-01-19T01:05:46.342Z,0.57
2023-01-19T01:08:16.677Z,0.57
2023-01-19T01:10:46.994Z,0.55
2023-01-19T01:13:21.676Z,0.55
2023-01-19T01:15:56.278Z,0.60
2023-01-19T01:18:29.066Z,0.51
2023-01-19T01:21:04.201Z,0.46
2023-01-19T01:23:34.135Z,0.52
2023-01-19T01:26:04.396Z,0.57
2023-01-19T01:28:35.253Z,0.54
2023-01-19T01:31:05.099Z,0.53
2023-01-19T01:33:40.508Z,0.46
2023-01-19T01:36:13.097Z,0.50
2023-01-19T01:38:43.945Z,0.42
2023-01-19T01:41:13.893Z,0.49
2023-01-19T01:43:47.985Z,0.43
2023-01-19T01:46:20.302Z,0.39
2023-01-19T01:48:59.921Z,0.43
2023-01-19T01:51:37.454Z,0.40
2023-01-19T01:54:17.030Z,0.41
2023-01-19T01:56:51.565Z,0.41
2023-01-19T01:59:29.562Z,0.32
2023-01-19T02:02:17.139Z,0.36
2023-01-19T02:04:56.650Z,0.25
2023-01-19T02:07:49.189Z,0.24
2023-01-19T02:10:31.675Z,0.19
2023-01-19T02:13:14.732Z,0.24
2023-01-19T02:15:49.734Z,0.29
2023-01-19T02:18:21.419Z,0.35
2023-01-19T02:21:30.396Z,0.32
2023-01-19T02:24:04.260Z,0.33
2023-01-19T02:26:39.397Z,0.38
2023-01-19T02:29:12.455Z,0.38
2023-01-19T02:31:43.578Z,0.32
2023-01-19T02:34:17.193Z,0.41
2023-01-19T02:36:54.922Z,0.33
2023-01-19T02:39:33.748Z,0.22
2023-01-19T02:42:10.121Z,0.20
2023-01-19T02:44:44.203Z,0.13
2023-01-19T02:47:16.987Z,0.21
2023-01-19T02:49:49.247Z,0.18
2023-01-19T02:52:21.491Z,0.28
2023-01-19T02:55:07.486Z,0.20
2023-01-19T02:58:00.546Z,0.10
2023-01-19T03:00:46.607Z,0.18
2023-01-19T03:03:33.471Z,0.20
2023-01-19T03:06:16.575Z,0.15
2023-01-19T03:08:56.309Z,0.11
2023-01-19T03:11:40.128Z,0.15
2023-01-19T03:14:18.531Z,0.09
2023-01-19T03:16:55.233Z,-0.04
2023-01-19T03:19:31.332Z,-0.07
2023-01-19T03:22:05.911Z,-0.08
2023-01-19T03:24:43.384Z,-0.07
2023-01-19T03:27:22.149Z,-0.15
2023-01-19T03:29:58.086Z,-0.20
2023-01-19T03:32:35.781Z,-0.16
2023-01-19T03:35:13.100Z,-0.15
2023-01-19T03:37:48.355Z,-0.13
2023-01-19T03:40:19.556Z,-0.18
2023-01-19T03:42:53.294Z,-0.26
2023-01-19T03:45:25.495Z,-0.30
2023-01-19T03:47:57.218Z,-0.23
2023-01-19T03:50:30.672Z,-0.26
2023-01-19T03:53:05.225Z,-0.27
2023-01-19T03:55:41.019Z,-0.21
2023-01-19T03:58:14.388Z,-0.20
2023-01-19T04:00:44.273Z,-0.17
2023-01-19T04:03:19.091Z,-0.17
2023-01-19T04:05:49.793Z,-0.15
2023-01-19T04:08:19.676Z,-0.20
2023-01-19T04:10:49.519Z,-0.17
2023-01-19T04:13:22.663Z,-0.18
2023-01-19T04:15:52.663Z,-0.28
2023-01-19T04:18:22.912Z,-0.27
2023-01-19T04:20:52.754Z,-0.23
2023-01-19T04:23:25.508Z,-0.37
2023-01-19T04:26:00.219Z,-0.40
2023-01-19T04:28:33.547Z,-0.45
2023-01-19T04:31:04.094Z,-0.57
2023-01-19T04:33:34.426Z,-0.59
2023-01-19T04:36:04.697Z,-0.58
2023-01-19T04:38:34.575Z,-0.61
2023-01-19T04:41:04.469Z,-0.66
2023-01-19T04:43:37.164Z,-0.75
2023-01-19T04:46:08.158Z,-0.71
2023-01-19T04:48:38.165Z,-0.69
2023-01-19T04:51:08.956Z,-0.73
2023-01-19T04:53:38.812Z,-0.78
2023-01-19T04:56:09.184Z,-0.78
2023-01-19T04:58:42.407Z,-0.80
2023-01-19T05:01:13.014Z,-0.83
2023-01-19T05:03:43.066Z,-0.87
2023-01-19T05:06:12.897Z,-0.93
2023-01-19T05:08:45.543Z,-0.96
2023-01-19T05:11:18.643Z,-1.01
2023-01-19T05:13:51.607Z,-0.99
2023-01-19T05:16:21.528Z,-1.04
2023-01-19T05:18:52.131Z,-1.07
2023-01-19T05:21:22.270Z,-1.06
2023-01-19T05:23:52.476Z,-1.03
2023-01-19T05:26:25.779Z,-1.06
2023-01-19T05:28:58.274Z,-1.10
2023-01-19T05:31:29.595Z,-1.12
2023-01-19T05:34:01.403Z,-1.20
2023-01-19T05:36:32.036Z,-1.09
2023-01-19T05:39:03.721Z,-1.12
2023-01-19T05:41:33.691Z,-1.13
2023-01-19T05:44:07.183Z,-1.13
2023-01-19T05:46:37.313Z,-1.15
2023-01-19T05:49:07.759Z,-1.10
2023-01-19T05:51:38.570Z,-1.17
2023-01-19T05:54:10.429Z,-1.22
2023-01-19T05:56:40.294Z,-1.24
2023-01-19T05:59:12.978Z,-1.17
2023-01-19T06:01:42.999Z,-1.20
2023-01-19T06:04:12.908Z,-1.19
2023-01-19T06:06:42.803Z,-1.18
2023-01-19T06:09:12.902Z,-1.17
2023-01-19T06:11:42.805Z,-1.14
2023-01-19T06:14:17.874Z,-1.17
2023-01-19T06:16:48.470Z,-1.19
2023-01-19T06:19:18.938Z,-1.26
2023-01-19T06:21:52.559Z,-1.29
2023-01-19T06:24:23.199Z,-1.30
2023-01-19T06:26:53.068Z,-1.29
2023-01-19T06:29:27.426Z,-1.33
2023-01-19T06:32:00.646Z,-1.29
2023-01-19T06:34:30.948Z,-1.34
2023-01-19T06:37:04.064Z,-1.37
2023-01-19T06:39:35.552Z,-1.38
2023-01-19T06:42:05.489Z,-1.44
2023-01-19T06:44:38.261Z,-1.40
2023-01-19T06:47:15.251Z,-1.42
2023-01-19T06:49:46.847Z,-1.46
2023-01-19T06:52:20.132Z,-1.47
2023-01-19T06:54:51.098Z,-1.49
2023-01-19T06:57:21.192Z,-1.42
2023-01-19T06:59:53.909Z,-1.42
2023-01-19T07:02:26.654Z,-1.41
2023-01-19T07:04:58.052Z,-1.44
2023-01-19T07:07:31.158Z,-1.40
2023-01-19T07:10:02.615Z,-1.49
2023-01-19T07:12:34.023Z,-1.45
2023-01-19T07:15:07.726Z,-1.37
2023-01-19T07:17:37.927Z,-1.33
2023-01-19T07:20:09.429Z,-1.26
2023-01-19T07:22:39.436Z,-1.15
2023-01-19T07:25:11.329Z,-1.02
2023-01-19T07:27:41.626Z,-0.85
2023-01-19T07:30:18.585Z,-0.82
2023-01-19T07:32:50.586Z,-0.75
2023-01-19T07:35:25.494Z,-0.78
2023-01-19T07:37:56.305Z,-0.76
2023-01-19T07:40:26.787Z,-0.76
2023-01-19T07:42:56.957Z,-0.82
2023-01-19T07:45:29.997Z,-0.76
2023-01-19T07:47:59.918Z,-0.65
2023-01-19T07:50:32.011Z,-0.52
2023-01-19T07:53:11.787Z,-0.46
2023-01-19T07:55:41.914Z,-0.44
2023-01-19T07:58:14.925Z,-0.34
2023-01-19T08:00:49.569Z,-0.30
2023-01-19T08:03:20.375Z,-0.29
2023-01-19T08:05:58.166Z,-0.24
2023-01-19T08:08:31.296Z,-0.29
2023-01-19T08:11:03.883Z,-0.17
2023-01-19T08:13:38.975Z,-0.02
2023-01-19T08:16:12.778Z,0.02
2023-01-19T08:18:44.953Z,-0.05
2023-01-19T08:21:14.862Z,-0.14
2023-01-19T08:23:45.901Z,-0.02
2023-01-19T08:26:25.319Z,0.20
2023-01-19T08:28:55.346Z,0.35
2023-01-19T08:31:29.801Z,0.58
2023-01-19T08:34:00.177Z,0.79
2023-01-19T08:36:32.310Z,0.87
2023-01-19T08:39:03.541Z,1.01
2023-01-19T08:41:36.606Z,1.19
2023-01-19T08:44:06.927Z,1.53
2023-01-19T08:46:39.539Z,1.59
2023-01-19T08:49:10.761Z,1.91
2023-01-19T08:51:40.920Z,1.89
2023-01-19T08:54:11.052Z,1.95
2023-01-19T08:56:41.047Z,2.07
2023-01-19T08:59:12.992Z,2.02
2023-01-19T09:01:46.705Z,1.90
2023-01-19T09:04:16.744Z,1.89
2023-01-19T09:06:46.715Z,1.88
2023-01-19T09:09:17.107Z,2.01
2023-01-19T09:11:46.965Z,1.81
2023-01-19T09:14:17.328Z,1.84
2023-01-19T09:16:49.979Z,2.06
2023-01-19T09:19:20.007Z,2.01
2023-01-19T09:21:50.890Z,1.83
2023-01-19T09:24:20.740Z,1.83
2023-01-19T09:26:50.641Z,1.82
2023-01-19T09:29:20.919Z,1.92
2023-01-19T09:31:53.383Z,2.15
2023-01-19T09:34:25.567Z,2.17
2023-01-19T09:36:55.540Z,2.62
2023-01-19T09:39:26.511Z,2.53
2023-01-19T09:42:09.488Z,2.45
2023-01-19T09:44:40.003Z,2.25
2023-01-19T09:47:23.574Z,2.46
2023-01-19T09:50:01.535Z,2.60
2023-01-19T09:52:35.503Z,2.72
2023-01-19T09:55:05.732Z,2.74
2023-01-19T09:57:37.636Z,2.95
2023-01-19T10:00:17.159Z,2.98
2023-01-19T10:02:56.405Z,3.11
2023-01-19T10:05:37.569Z,3.42
2023-01-19T10:08:24.010Z,3.70
2023-01-19T10:10:57.094Z,4.64
2023-01-19T10:13:42.264Z,4.70
2023-01-19T10:16:37.211Z,5.21
2023-01-19T10:19:26.173Z,5.48
2023-01-19T10:22:01.095Z,5.47
2023-01-19T10:24:40.339Z,5.69
2023-01-19T10:27:19.037Z,5.56
2023-01-19T10:29:50.051Z,6.05
2023-01-19T10:32:25.754Z,5.92
2023-01-19T10:34:59.624Z,5.55
2023-01-19T10:37:34.770Z,5.47
2023-01-19T10:40:23.232Z,5.56
2023-01-19T10:42:53.304Z,5.55
2023-01-19T10:45:27.636Z,5.57
2023-01-19T10:48:02.744Z,5.28
2023-01-19T10:50:40.107Z,5.04
2023-01-19T10:53:25.808Z,4.95
2023-01-19T10:56:18.200Z,4.79
2023-01-19T10:58:48.358Z,4.68
2023-01-19T11:01:21.817Z,4.45
2023-01-19T11:03:54.130Z,4.33
2023-01-19T11:06:32.672Z,4.33
2023-01-19T11:09:20.538Z,4.30
2023-01-19T11:11:53.324Z,4.41
2023-01-19T11:14:26.519Z,4.37
2023-01-19T11:16:59.599Z,4.27
2023-01-19T11:19:31.627Z,4.07
2023-01-19T11:22:22.430Z,4.26
2023-01-19T11:24:53.269Z,4.19
2023-01-19T11:27:24.583Z,4.16
2023-01-19T11:30:09.875Z,4.11
2023-01-19T11:32:39.864Z,4.18
2023-01-19T11:35:42.650Z,3.98
2023-01-19T11:38:27.404Z,4.13
2023-01-19T11:40:59.786Z,4.16
2023-01-19T11:43:48.246Z,3.93
2023-01-19T11:46:20.739Z,3.94
2023-01-19T11:49:02.106Z,4.00
2023-01-19T11:51:40.242Z,4.14
2023-01-19T11:54:24.353Z,3.95
2023-01-19T11:56:55.996Z,4.06
2023-01-19T11:59:26.928Z,4.14
2023-01-19T12:02:01.625Z,4.35
2023-01-19T12:04:37.247Z,4.24
2023-01-19T12:07:12.757Z,4.16
2023-01-19T12:09:51.000Z,4.02
2023-01-19T12:12:31.647Z,3.88
2023-01-19T12:15:09.809Z,3.76
2023-01-19T12:17:47.372Z,3.83
2023-01-19T12:20:29.630Z,3.51
2023-01-19T12:23:14.633Z,3.50
2023-01-19T12:26:01.610Z,3.54
2023-01-19T12:28:35.586Z,3.51
2023-01-19T12:31:08.397Z,3.64
2023-01-19T12:33:41.527Z,3.74
2023-01-19T12:36:40.229Z,3.35
2023-01-19T12:39:23.795Z,3.50
2023-01-19T12:42:11.098Z,3.53
2023-01-19T12:44:42.124Z,3.74
2023-01-19T12:47:24.573Z,3.72
2023-01-19T12:49:59.614Z,3.74
2023-01-19T12:52:34.581Z,3.58
2023-01-19T12:55:26.972Z,3.41
2023-01-19T12:58:04.811Z,3.48
2023-01-19T13:00:38.605Z,3.27
2023-01-19T13:03:49.044Z,3.02
2023-01-19T13:06:19.132Z,3.01
2023-01-19T13:09:03.633Z,3.11
2023-01-19T13:11:34.758Z,3.22
2023-01-19T13:14:36.813Z,3.25
2023-01-19T13:17:29.698Z,3.36
2023-01-19T13:20:35.046Z,3.34
2023-01-19T13:23:24.285Z,3.08
2023-01-19T13:26:01.531Z,3.08
2023-01-19T13:28:38.807Z,2.94
2023-01-19T13:31:10.224Z,2.85
2023-01-19T13:33:51.032Z,2.77
2023-01-19T13:36:30.374Z,2.88
2023-01-19T13:39:03.150Z,2.71
2023-01-19T13:41:38.389Z,2.61
2023-01-19T13:44:17.005Z,2.61
2023-01-19T13:46:48.729Z,2.64
2023-01-19T13:49:26.283Z,2.56
2023-01-19T13:52:18.442Z,2.52
2023-01-19T13:54:53.158Z,2.58
2023-01-19T13:57:28.782Z,2.49
2023-01-19T14:00:12.073Z,2.56
2023-01-19T14:02:43.134Z,2.46
2023-01-19T14:05:23.114Z,2.40
2023-01-19T14:08:03.429Z,2.34
2023-01-19T14:10:37.512Z,2.31
2023-01-19T14:13:18.939Z,2.29
2023-01-19T14:15:51.882Z,2.30
2023-01-19T14:18:30.384Z,2.24
2023-01-19T14:21:07.883Z,2.23
2023-01-19T14:23:44.303Z,2.12
2023-01-19T14:26:46.360Z,2.09
2023-01-19T14:29:26.263Z,2.12
2023-01-19T14:32:09.836Z,2.13
2023-01-19T14:34:41.591Z,2.13
2023-01-19T14:37:29.865Z,2.01
2023-01-19T14:40:04.821Z,2.11
2023-01-19T14:42:40.277Z,2.07
2023-01-19T14:45:20.895Z,1.97
2023-01-19T14:47:59.675Z,2.01
2023-01-19T14:50:33.252Z,2.27
2023-01-19T14:53:09.518Z,2.19
2023-01-19T14:55:49.852Z,2.22
2023-01-19T14:58:22.249Z,2.19
2023-01-19T15:00:55.743Z,2.37
2023-01-19T15:03:42.854Z,2.39
2023-01-19T15:06:19.504Z,2.17
2023-01-19T15:09:10.018Z,2.15
2023-01-19T15:11:40.043Z,2.12
2023-01-19T15:14:14.633Z,2.02
2023-01-19T15:16:46.630Z,1.81
2023-01-19T15:19:18.799Z,1.88
2023-01-19T15:21:48.708Z,1.91
2023-01-19T15:24:21.126Z,1.88
2023-01-19T15:26:52.272Z,1.85
2023-01-19T15:29:33.106Z,1.74
2023-01-19T15:32:04.057Z,1.72
2023-01-19T15:34:34.408Z,1.70
2023-01-19T15:37:06.030Z,1.67
2023-01-19T15:39:39.831Z,1.62
2023-01-19T15:42:17.513Z,1.64
2023-01-19T15:44:47.322Z,1.60
2023-01-19T15:47:17.146Z,1.53
2023-01-19T15:49:47.948Z,1.50
2023-01-19T15:52:19.029Z,1.52
2023-01-19T15:54:51.592Z,1.44
2023-01-19T15:57:24.422Z,1.38
2023-01-19T15:59:54.512Z,1.35
2023-01-19T16:02:26.911Z,1.40
2023-01-19T16:04:56.886Z,1.43
2023-01-19T16:07:27.791Z,1.41
2023-01-19T16:10:04.070Z,1.28
2023-01-19T16:12:34.295Z,1.28
2023-01-19T16:15:04.108Z,1.31
2023-01-19T16:17:36.676Z,1.33
2023-01-19T16:20:06.816Z,1.33
2023-01-19T16:22:37.761Z,1.33
2023-01-19T16:25:10.815Z,1.30
2023-01-19T16:27:40.866Z,1.26
2023-01-19T16:30:16.423Z,1.34
2023-01-19T16:32:47.646Z,1.35
2023-01-19T16:35:17.882Z,1.28
2023-01-19T16:37:53.495Z,1.23
2023-01-19T16:40:26.011Z,1.22
2023-01-19T16:42:58.080Z,1.16
2023-01-19T16:45:27.942Z,1.22
2023-01-19T16:47:58.668Z,1.24
2023-01-19T16:50:29.613Z,1.18
2023-01-19T16:53:00.297Z,1.20
2023-01-19T16:55:33.413Z,1.16
2023-01-19T16:58:03.325Z,1.11
2023-01-19T17:00:34.140Z,1.10
2023-01-19T17:03:04.053Z,1.17
2023-01-19T17:05:34.092Z,1.14
2023-01-19T17:08:04.085Z,1.12
2023-01-19T17:10:40.127Z,1.07
2023-01-19T17:13:10.034Z,1.07
2023-01-19T17:15:42.001Z,1.05
2023-01-19T17:18:15.882Z,1.09
2023-01-19T17:20:47.626Z,1.09
2023-01-19T17:23:18.194Z,1.02
2023-01-19T17:25:57.816Z,1.08
2023-01-19T17:28:30.351Z,1.06
2023-01-19T17:31:06.624Z,1.08
2023-01-19T17:33:39.797Z,1.08
2023-01-19T17:36:13.989Z,1.04
2023-01-19T17:38:49.316Z,1.08
2023-01-19T17:41:23.694Z,1.05
2023-01-19T17:43:54.624Z,1.07
2023-01-19T17:46:27.064Z,1.00
2023-01-19T17:49:00.368Z,1.04
2023-01-19T17:51:33.714Z,0.96
2023-01-19T17:54:04.223Z,0.92
2023-01-19T17:56:41.394Z,1.07
2023-01-19T17:59:11.393Z,1.05
2023-01-19T18:01:44.541Z,1.09
2023-01-19T18:04:14.896Z,1.12
2023-01-19T18:06:47.255Z,1.20
2023-01-19T18:09:17.114Z,1.92
2023-01-19T18:11:49.566Z,1.59
2023-01-19T18:14:19.497Z,1.33
2023-01-19T18:16:51.514Z,1.30
2023-01-19T18:19:22.587Z,1.23
2023-01-19T18:21:54.708Z,1.27
2023-01-19T18:24:25.933Z,1.27
2023-01-19T18:26:58.802Z,1.30
2023-01-19T18:29:28.652Z,1.20
2023-01-19T18:31:59.962Z,0.98
2023-01-19T18:34:30.258Z,1.03
2023-01-19T18:37:01.094Z,1.06
2023-01-19T18:39:31.253Z,1.11
2023-01-19T18:42:03.991Z,1.08
2023-01-19T18:44:36.263Z,1.08
2023-01-19T18:47:06.502Z,0.99
2023-01-19T18:49:36.333Z,1.00
2023-01-19T18:52:06.656Z,1.08
2023-01-19T18:54:37.731Z,1.07
2023-01-19T18:57:11.608Z,1.04
2023-01-19T18:59:42.638Z,1.07
2023-01-19T19:02:15.010Z,1.04
2023-01-19T19:04:45.326Z,0.98
2023-01-19T19:07:17.491Z,0.99
2023-01-19T19:09:47.673Z,0.84
2023-01-19T19:12:20.228Z,0.79
2023-01-19T19:14:51.732Z,0.87
2023-01-19T19:17:21.703Z,0.84
2023-01-19T19:19:51.668Z,0.69
2023-01-19T19:22:21.593Z,0.65
2023-01-19T19:24:51.798Z,0.67
2023-01-19T19:27:24.274Z,0.68
2023-01-19T19:29:54.235Z,0.68
2023-01-19T19:32:27.246Z,0.70
2023-01-19T19:34:59.076Z,0.66
2023-01-19T19:37:30.108Z,0.66
2023-01-19T19:40:00.200Z,0.70
2023-01-19T19:42:32.868Z,0.96
2023-01-19T19:45:04.012Z,0.87
2023-01-19T19:47:34.227Z,0.85
2023-01-19T19:50:04.717Z,0.85
2023-01-19T19:52:34.750Z,0.87
2023-01-19T19:55:04.607Z,0.80
2023-01-19T19:57:37.088Z,0.72
2023-01-19T20:00:08.760Z,0.77
2023-01-19T20:02:41.511Z,0.76
2023-01-19T20:05:12.029Z,0.80
2023-01-19T20:07:47.088Z,0.82
2023-01-19T20:10:17.181Z,0.82
2023-01-19T20:12:50.148Z,0.81
2023-01-19T20:15:20.693Z,0.74
2023-01-19T20:17:50.544Z,0.70
2023-01-19T20:20:20.924Z,0.68
2023-01-19T20:22:51.171Z,0.60
2023-01-19T20:25:21.295Z,0.61
2023-01-19T20:27:53.713Z,0.65
2023-01-19T20:30:26.819Z,0.65
2023-01-19T20:32:56.732Z,0.60
2023-01-19T20:35:26.827Z,0.48
2023-01-19T20:37:56.613Z,0.18
2023-01-19T20:40:26.505Z,0.22
2023-01-19T20:42:58.913Z,0.05
2023-01-19T20:45:28.787Z,-0.15
2023-01-19T20:47:58.691Z,0.00
2023-01-19T20:50:28.509Z,0.04
2023-01-19T20:52:58.443Z,0.01
2023-01-19T20:55:28.543Z,0.13
2023-01-19T20:58:01.549Z,0.23
2023-01-19T21:00:31.648Z,0.20
2023-01-19T21:03:01.622Z,0.23
2023-01-19T21:05:31.569Z,0.20
2023-01-19T21:08:01.568Z,0.15
2023-01-19T21:10:32.140Z,0.09
2023-01-19T21:13:04.573Z,0.05
2023-01-19T21:15:34.571Z,0.11
2023-01-19T21:18:04.410Z,0.09
2023-01-19T21:20:35.836Z,0.05
2023-01-19T21:23:05.723Z,-0.16
2023-01-19T21:25:37.247Z,-0.04
2023-01-19T21:28:09.802Z,-0.07
2023-01-19T21:30:39.639Z,-0.13
2023-01-19T21:33:10.990Z,-0.15
2023-01-19T21:35:40.977Z,-0.07
2023-01-19T21:38:10.851Z,-0.03
2023-01-19T21:40:40.694Z,-0.11
2023-01-19T21:43:13.619Z,-0.14
2023-01-19T21:45:44.259Z,-0.24
2023-01-19T21:48:14.166Z,-0.28
2023-01-19T21:50:44.047Z,-0.33
2023-01-19T21:53:14.737Z,-0.20
2023-01-19T21:55:47.719Z,-0.21
2023-01-19T21:58:20.088Z,-0.66
2023-01-19T22:00:50.033Z,-0.62
2023-01-19T22:03:20.127Z,-0.75
2023-01-19T22:05:50.004Z,-0.76
2023-01-19T22:08:19.877Z,-0.79
2023-01-19T22:10:49.728Z,-0.63
2023-01-19T22:13:22.260Z,-0.56
2023-01-19T22:15:52.069Z,-0.56
2023-01-19T22:18:24.234Z,-0.44
2023-01-19T22:20:54.098Z,-0.46
2023-01-19T22:23:24.043Z,-0.33
2023-01-19T22:25:54.056Z,-0.24
2023-01-19T22:28:26.551Z,-0.19
2023-01-19T22:30:56.469Z,-0.15
2023-01-19T22:33:28.048Z,-0.28
2023-01-19T22:35:57.929Z,-0.20
2023-01-19T22:38:27.810Z,-0.22
2023-01-19T22:40:57.672Z,-0.21
2023-01-19T22:43:30.125Z,-0.18
2023-01-19T22:46:00.187Z,-0.32
2023-01-19T22:48:30.065Z,-0.26
2023-01-19T22:51:01.109Z,-0.42
2023-01-19T22:53:33.165Z,-0.35
2023-01-19T22:56:02.977Z,-0.61
2023-01-19T22:58:35.433Z,-0.50
2023-01-19T23:04:16.799Z,-0.26
2023-01-19T23:06:49.297Z,-0.21
2023-01-19T23:09:20.476Z,-0.20
2023-01-19T23:11:54.198Z,-0.23
2023-01-19T23:14:26.642Z,-0.31
2023-01-19T23:16:56.507Z,-0.56
2023-01-19T23:19:28.736Z,-0.53
2023-01-19T23:22:00.292Z,-0.86
2023-01-19T23:24:30.583Z,-0.75
2023-01-19T23:27:02.349Z,-0.57
2023-01-19T23:29:34.859Z,-0.51
2023-01-19T23:32:04.996Z,-0.63
2023-01-19T23:34:34.874Z,-0.65
2023-01-19T23:37:06.577Z,-0.57
2023-01-19T23:39:36.382Z,-0.45
2023-01-19T23:42:08.205Z,-0.88
2023-01-19T23:44:40.657Z,-1.07
2023-01-19T23:47:10.476Z,-0.89
2023-01-19T23:49:40.290Z,-0.90
2023-01-19T23:52:10.871Z,-0.79
2023-01-19T23:54:41.951Z,-0.74
2023-01-19T23:57:12.159Z,-0.78
2023-01-19T23:59:44.605Z,-0.76
